Newburgh, New York
Current Conditions -  °F | °C
As of 11:45 AM on Thursday 23 Oct 2014 (Local Time) from KSWF Reporting Station
Light Rain Light Rain  
Wind Chill: 42°   Ceiling: 5000
Heat Index: 48°   Visibility: 3mi
Dew Point: 46°   Wind: 17mph
Humidity: 93%   Direction: 20°NNE
Pressure: 29.76"   Gusts: 29mph
Location:  41.5°N, 74.01°W
Report Text: KSWF 231545Z 02015G25KT 3SM -RA BKN050 OVC020 09/08 A2976
Loading
Personal Weather Stations






























Interactive Weather Map
Tropical Storm Tracking
New forecast layout! Learn more

10-Day Weather Forecast

Advertisements
Track Severe Weather on mobile